Time;durP1;ratioP1;P1;durP2;ratioP2;P2;SDS_P1;SDS_P2;PMS_P1;PMS_P2;Temp;Humidity;BMP_temperature;BMP_pressure;BME280_temperature;BME280_humidity;BME280_pressure;Samples;Min_cycle;Max_cycle;Signal;HPM_P1;HPM_P2
2021/11/20 00:01:37;;;;;;;44.50;19.17;;;;;;;;;;6241101;23;20174;-89
2021/11/20 00:04:49;;;;;;;50.23;18.13;;;;;;;;;;6241440;23;20292;-89
2021/11/20 00:08:01;;;;;;;47.90;19.13;;;;;;;;;;6243186;23;20266;-90
2021/11/20 00:11:16;;;;;;;50.90;18.93;;;;;;;;;;6240283;23;20225;-89
2021/11/20 00:14:28;;;;;;;43.77;18.20;;;;;;;;;;6240100;23;20213;-88
2021/11/20 00:17:39;;;;;;;45.73;19.23;;;;;;;;;;6240406;23;20170;-88
2021/11/20 00:20:55;;;;;;;44.57;18.43;;;;;;;;;;6240742;23;20170;-91
2021/11/20 00:24:15;;;;;;;45.13;19.37;;;;;;;;;;6240758;23;20213;-90
2021/11/20 00:27:33;;;;;;;43.23;18.10;;;;;;;;;;6240060;23;20302;-88
2021/11/20 00:30:52;;;;;;;45.57;18.67;;;;;;;;;;6239380;22;20178;-89
2021/11/20 00:34:04;;;;;;;38.67;18.17;;;;;;;;;;6239056;23;20216;-90
2021/11/20 00:37:16;;;;;;;43.63;18.77;;;;;;;;;;6239414;23;20181;-88
2021/11/20 00:40:30;;;;;;;43.27;18.83;;;;;;;;;;6240402;23;20248;-89
2021/11/20 00:43:46;;;;;;;42.00;18.47;;;;;;;;;;6239571;23;20175;-88
2021/11/20 00:46:58;;;;;;;43.63;19.17;;;;;;;;;;6240935;23;20257;-88
2021/11/20 00:50:13;;;;;;;44.73;19.17;;;;;;;;;;6240049;23;20285;-89
2021/11/20 00:53:25;;;;;;;44.83;19.23;;;;;;;;;;6240971;23;20235;-89
2021/11/20 00:56:37;;;;;;;45.13;19.13;;;;;;;;;;6240180;23;20166;-90
2021/11/20 00:59:51;;;;;;;40.63;17.93;;;;;;;;;;6239703;23;20221;-91
2021/11/20 01:03:04;;;;;;;38.80;17.80;;;;;;;;;;6239487;23;20245;-89
2021/11/20 01:06:16;;;;;;;38.83;17.83;;;;;;;;;;6240697;23;20193;-90
2021/11/20 01:09:30;;;;;;;39.53;17.60;;;;;;;;;;6239316;23;20253;-89
2021/11/20 01:12:43;;;;;;;38.00;16.90;;;;;;;;;;6238303;22;20171;-89
2021/11/20 01:15:58;;;;;;;39.27;17.23;;;;;;;;;;6237487;23;20618;-90
2021/11/20 01:19:10;;;;;;;37.77;17.43;;;;;;;;;;6238415;23;20182;-89
2021/11/20 01:22:42;;;;;;;37.63;17.00;;;;;;;;;;6259230;23;20227;-88
2021/11/20 01:26:12;;;;;;;42.47;18.40;;;;;;;;;;6242427;23;20194;-89
2021/11/20 01:29:31;;;;;;;47.03;18.43;;;;;;;;;;6241512;23;20282;-89
2021/11/20 01:32:45;;;;;;;40.43;17.90;;;;;;;;;;6242853;23;20251;-88
2021/11/20 01:35:57;;;;;;;44.10;18.70;;;;;;;;;;6241439;23;20474;-88
2021/11/20 01:39:11;;;;;;;39.43;18.03;;;;;;;;;;6241854;23;20178;-90
2021/11/20 01:42:31;;;;;;;45.40;17.83;;;;;;;;;;6240430;23;20233;-90
2021/11/20 01:45:53;;;;;;;40.47;16.83;;;;;;;;;;6241139;23;20245;-93
2021/11/20 01:49:16;;;;;;;41.33;17.23;;;;;;;;;;6240929;23;20647;-89
2021/11/20 01:52:37;;;;;;;41.50;17.20;;;;;;;;;;6241767;23;20186;-89
2021/11/20 01:55:54;;;;;;;41.13;17.80;;;;;;;;;;6240186;23;20503;-90
2021/11/20 01:59:22;;;;;;;46.15;20.17;;;;;;;;;;6241896;23;20170;-90
2021/11/20 02:03:17;;;;;;;47.77;18.13;;;;;;;;;;6258955;23;20197;-89
2021/11/20 02:06:41;;;;;;;37.53;16.73;;;;;;;;;;6239616;23;20187;-88
2021/11/20 02:09:58;;;;;;;41.97;18.77;;;;;;;;;;6240578;23;20219;-90
2021/11/20 02:13:17;;;;;;;43.80;18.30;;;;;;;;;;6241022;23;20166;-89
2021/11/20 02:16:31;;;;;;;37.87;16.20;;;;;;;;;;6240787;23;20174;-88
2021/11/20 02:19:44;;;;;;;36.20;17.10;;;;;;;;;;6240017;23;20473;-89
2021/11/20 02:22:56;;;;;;;36.85;16.15;;;;;;;;;;6242139;23;20273;-88
2021/11/20 02:26:11;;;;;;;33.63;15.97;;;;;;;;;;6241050;23;20203;-89
2021/11/20 02:29:47;;;;;;;35.17;15.60;;;;;;;;;;6258605;23;20241;-89
2021/11/20 02:33:22;;;;;;;42.05;17.75;;;;;;;;;;6240039;23;20179;-86
2021/11/20 02:36:36;;;;;;;34.72;15.32;;;;;;;;;;6240089;23;20270;-87
2021/11/20 02:39:49;;;;;;;41.35;16.35;;;;;;;;;;6240480;23;20163;-91
2021/11/20 02:43:02;;;;;;;36.90;15.90;;;;;;;;;;6240824;23;20174;-89
2021/11/20 02:46:18;;;;;;;33.27;14.03;;;;;;;;;;6240820;23;20190;-89
2021/11/20 02:49:32;;;;;;;40.73;17.43;;;;;;;;;;6241975;23;20166;-90
2021/11/20 02:53:04;;;;;;;38.90;17.50;;;;;;;;;;6242301;23;20170;-88
2021/11/20 02:56:18;;;;;;;35.70;15.73;;;;;;;;;;6241106;23;20663;-87
2021/11/20 02:59:30;;;;;;;37.10;15.87;;;;;;;;;;6241569;23;20203;-87
2021/11/20 03:02:42;;;;;;;36.67;16.13;;;;;;;;;;6241065;23;20170;-88
2021/11/20 03:05:55;;;;;;;35.33;15.67;;;;;;;;;;6241464;23;20194;-88
2021/11/20 03:09:08;;;;;;;40.57;16.97;;;;;;;;;;6241067;23;20237;-90
2021/11/20 03:12:20;;;;;;;41.80;16.80;;;;;;;;;;6241492;23;20170;-89
2021/11/20 03:15:39;;;;;;;38.33;16.77;;;;;;;;;;6240923;23;20162;-88
2021/11/20 03:18:51;;;;;;;50.63;17.50;;;;;;;;;;6241375;23;20226;-90
2021/11/20 03:22:08;;;;;;;40.13;16.80;;;;;;;;;;6244443;23;20609;-89
2021/11/20 03:25:20;;;;;;;40.37;17.50;;;;;;;;;;6242705;23;20155;-92
2021/11/20 03:28:34;;;;;;;39.47;16.90;;;;;;;;;;6244822;23;20222;-89
2021/11/20 03:31:49;;;;;;;37.27;15.50;;;;;;;;;;6245587;23;20649;-90
2021/11/20 03:35:01;;;;;;;34.67;15.13;;;;;;;;;;6243292;23;20174;-89
2021/11/20 03:38:14;;;;;;;39.50;16.33;;;;;;;;;;6242524;23;20162;-89
2021/11/20 03:41:26;;;;;;;35.33;14.87;;;;;;;;;;6243604;23;20190;-89
2021/11/20 03:44:38;;;;;;;33.13;14.27;;;;;;;;;;6241872;23;20215;-90
2021/11/20 03:47:51;;;;;;;32.67;14.30;;;;;;;;;;6240500;23;20213;-90
2021/11/20 03:51:05;;;;;;;34.23;14.97;;;;;;;;;;6215595;23;20183;-91
2021/11/20 03:54:19;;;;;;;30.73;13.23;;;;;;;;;;6242526;23;20175;-91
2021/11/20 03:57:31;;;;;;;35.63;14.90;;;;;;;;;;6241019;23;20213;-89
2021/11/20 04:00:44;;;;;;;31.63;13.63;;;;;;;;;;6240803;23;20653;-89
2021/11/20 04:03:58;;;;;;;33.40;13.77;;;;;;;;;;6241731;23;20253;-89
2021/11/20 04:07:10;;;;;;;32.43;14.40;;;;;;;;;;6241741;23;20201;-90
2021/11/20 04:10:24;;;;;;;33.53;13.93;;;;;;;;;;6241515;23;20209;-90
2021/11/20 04:13:36;;;;;;;30.30;13.20;;;;;;;;;;6240163;23;20314;-90
2021/11/20 04:16:49;;;;;;;35.13;14.70;;;;;;;;;;6240718;23;20225;-90
2021/11/20 04:20:06;;;;;;;34.57;14.23;;;;;;;;;;6241476;23;20163;-90
2021/11/20 04:23:17;;;;;;;30.70;13.80;;;;;;;;;;6241521;23;20625;-92
2021/11/20 04:26:32;;;;;;;37.47;13.80;;;;;;;;;;6240148;23;20236;-88
2021/11/20 04:29:44;;;;;;;31.30;13.03;;;;;;;;;;6241230;23;20278;-90
2021/11/20 04:32:57;;;;;;;33.40;14.43;;;;;;;;;;6241852;23;20173;-90
2021/11/20 04:36:10;;;;;;;29.37;13.47;;;;;;;;;;6241747;23;20170;-89
2021/11/20 04:39:23;;;;;;;31.03;14.33;;;;;;;;;;6241611;23;20190;-89
2021/11/20 04:42:45;;;;;;;35.10;13.90;;;;;;;;;;6241102;23;20174;-89
2021/11/20 04:45:56;;;;;;;35.27;14.37;;;;;;;;;;6240555;23;20166;-89
2021/11/20 04:49:08;;;;;;;34.87;14.57;;;;;;;;;;6240124;23;20241;-90
2021/11/20 04:52:20;;;;;;;33.87;14.90;;;;;;;;;;6240731;23;20313;-89
2021/11/20 04:55:32;;;;;;;29.37;12.93;;;;;;;;;;6240500;23;20179;-88
2021/11/20 04:58:49;;;;;;;30.00;13.07;;;;;;;;;;6243545;23;20465;-90
2021/11/20 05:02:03;;;;;;;30.00;13.57;;;;;;;;;;6243255;23;20198;-89
2021/11/20 05:05:16;;;;;;;30.03;13.00;;;;;;;;;;6243404;23;20565;-88
2021/11/20 05:08:28;;;;;;;33.80;13.50;;;;;;;;;;6242431;23;20197;-89
2021/11/20 05:11:50;;;;;;;32.27;13.40;;;;;;;;;;6243306;23;20167;-90
2021/11/20 05:15:05;;;;;;;26.93;12.60;;;;;;;;;;6245214;23;20244;-89
2021/11/20 05:18:18;;;;;;;29.53;13.77;;;;;;;;;;6244221;23;20219;-90
2021/11/20 05:21:44;;;;;;;30.17;13.10;;;;;;;;;;6245353;23;20158;-90
2021/11/20 05:24:56;;;;;;;34.17;12.73;;;;;;;;;;6243676;23;20170;-91
2021/11/20 05:28:09;;;;;;;32.50;13.13;;;;;;;;;;6241909;23;20616;-90
2021/11/20 05:31:22;;;;;;;30.93;13.53;;;;;;;;;;6244219;23;20178;-90
2021/11/20 05:34:34;;;;;;;30.40;13.40;;;;;;;;;;6244217;23;20171;-90
2021/11/20 05:37:47;;;;;;;33.83;13.50;;;;;;;;;;6247990;23;20166;-88
2021/11/20 05:40:59;;;;;;;33.03;13.73;;;;;;;;;;6246914;23;20574;-90
2021/11/20 05:44:25;;;;;;;29.90;13.53;;;;;;;;;;6242892;23;20170;-90
2021/11/20 05:47:49;;;;;;;33.93;14.23;;;;;;;;;;6245323;23;20299;-92
2021/11/20 05:51:01;;;;;;;35.20;13.63;;;;;;;;;;6243751;23;20209;-91
2021/11/20 05:54:14;;;;;;;32.47;13.67;;;;;;;;;;6244185;23;20241;-88
2021/11/20 05:57:27;;;;;;;32.33;14.43;;;;;;;;;;6244673;23;20170;-90
2021/11/20 06:00:56;;;;;;;30.17;12.80;;;;;;;;;;6244327;23;20161;-89
2021/11/20 06:04:09;;;;;;;33.77;14.17;;;;;;;;;;6243090;23;20214;-89
2021/11/20 06:07:21;;;;;;;35.27;14.60;;;;;;;;;;6243123;23;20175;-89
2021/11/20 06:10:35;;;;;;;33.47;13.77;;;;;;;;;;6243811;23;20496;-89
2021/11/20 06:13:47;;;;;;;34.33;14.00;;;;;;;;;;6246080;23;20175;-90
2021/11/20 06:17:29;;;;;;;31.20;14.07;;;;;;;;;;6261190;23;20249;-90
2021/11/20 06:20:44;;;;;;;33.92;13.88;;;;;;;;;;6244036;23;20261;-90
2021/11/20 06:23:56;;;;;;;32.08;13.13;;;;;;;;;;6244113;23;20198;-89
2021/11/20 06:27:08;;;;;;;30.57;13.70;;;;;;;;;;6247263;23;20224;-91
2021/11/20 06:30:26;;;;;;;31.67;12.80;;;;;;;;;;6243587;23;20167;-88
2021/11/20 06:33:39;;;;;;;30.80;12.80;;;;;;;;;;6244435;23;20242;-90
2021/11/20 06:37:24;;;;;;;31.20;12.93;;;;;;;;;;6224125;23;20190;-91
2021/11/20 06:40:45;;;;;;;32.13;12.83;;;;;;;;;;6242657;23;20166;-90
2021/11/20 06:43:59;;;;;;;31.50;13.23;;;;;;;;;;6243115;23;20174;-89
2021/11/20 06:47:11;;;;;;;29.43;12.57;;;;;;;;;;6241009;23;20251;-90
2021/11/20 06:50:25;;;;;;;31.23;14.33;;;;;;;;;;6242547;23;20171;-90
2021/11/20 06:54:12;;;;;;;38.23;14.27;;;;;;;;;;6221522;23;20570;-89
2021/11/20 06:58:09;;;;;;;37.00;15.00;;;;;;;;;;6261419;23;20210;-89
2021/11/20 07:01:47;;;;;;;31.92;14.35;;;;;;;;;;6261318;23;20205;-89
2021/11/20 07:05:01;;;;;;;39.10;14.53;;;;;;;;;;6243639;23;20285;-91
2021/11/20 07:08:14;;;;;;;38.15;15.13;;;;;;;;;;6243156;23;20202;-90
2021/11/20 07:11:28;;;;;;;36.78;15.27;;;;;;;;;;6244018;23;20671;-87
2021/11/20 07:14:40;;;;;;;38.20;15.50;;;;;;;;;;6254207;22;20158;-88
2021/11/20 07:17:53;;;;;;;35.13;15.07;;;;;;;;;;6242589;23;20170;-89
2021/11/20 07:21:34;;;;;;;41.07;15.50;;;;;;;;;;6172602;23;20217;-90
2021/11/20 07:25:01;;;;;;;36.53;15.47;;;;;;;;;;6243586;23;20185;-90
2021/11/20 07:28:15;;;;;;;44.10;17.77;;;;;;;;;;6244532;23;20238;-90
2021/11/20 07:31:27;;;;;;;46.87;17.70;;;;;;;;;;6244823;23;20259;-90
2021/11/20 07:34:39;;;;;;;50.00;18.77;;;;;;;;;;6244053;23;20174;-89
2021/11/20 07:37:51;;;;;;;47.43;18.37;;;;;;;;;;6243770;23;20182;-89
2021/11/20 07:41:08;;;;;;;48.13;18.00;;;;;;;;;;6244192;22;20362;-90
2021/11/20 07:48:03;;;;;;;48.10;18.33;;;;;;;;;;6251109;23;20182;-89
2021/11/20 07:51:16;;;;;;;47.83;17.90;;;;;;;;;;6248481;23;20162;-89
2021/11/20 07:54:30;;;;;;;54.40;18.03;;;;;;;;;;6248929;23;20270;-91
2021/11/20 07:58:03;;;;;;;45.87;16.60;;;;;;;;;;6267793;23;20219;-92
2021/11/20 08:01:17;;;;;;;44.27;17.43;;;;;;;;;;6244241;23;20158;-90
2021/11/20 08:04:30;;;;;;;47.67;18.83;;;;;;;;;;6247492;23;20201;-88
2021/11/20 08:11:48;;;;;;;50.13;18.60;;;;;;;;;;6245009;23;20195;-89
2021/11/20 08:14:59;;;;;;;50.63;18.27;;;;;;;;;;6246878;23;20198;-89
2021/11/20 08:18:42;;;;;;;48.47;17.63;;;;;;;;;;6262385;23;20162;-89
2021/11/20 08:22:10;;;;;;;55.87;19.20;;;;;;;;;;6244537;23;20194;-90
2021/11/20 08:25:24;;;;;;;45.60;18.50;;;;;;;;;;6244367;23;20167;-89
2021/11/20 08:28:37;;;;;;;49.70;18.87;;;;;;;;;;6244515;23;20268;-88
2021/11/20 08:31:56;;;;;;;52.13;18.67;;;;;;;;;;6245084;22;20158;-90
2021/11/20 08:35:13;;;;;;;51.40;19.33;;;;;;;;;;6244618;23;20167;-91
2021/11/20 08:38:43;;;;;;;49.60;18.97;;;;;;;;;;6264390;23;20170;-89
2021/11/20 08:41:59;;;;;;;52.10;18.50;;;;;;;;;;6246421;23;20167;-91
2021/11/20 08:45:14;;;;;;;49.97;20.08;;;;;;;;;;6246018;23;20178;-89
2021/11/20 08:48:31;;;;;;;50.08;19.45;;;;;;;;;;6245270;23;20345;-91
2021/11/20 08:51:46;;;;;;;44.92;18.13;;;;;;;;;;6245596;23;20222;-90
2021/11/20 08:54:58;;;;;;;51.08;18.52;;;;;;;;;;6244405;23;20229;-90
2021/11/20 08:58:12;;;;;;;51.72;19.00;;;;;;;;;;6243561;23;20170;-89
2021/11/20 09:01:29;;;;;;;45.67;18.35;;;;;;;;;;6243268;23;20251;-90
2021/11/20 09:04:49;;;;;;;51.13;18.50;;;;;;;;;;6246738;23;20214;-89
2021/11/20 09:08:15;;;;;;;44.10;18.10;;;;;;;;;;6244056;23;20269;-88
2021/11/20 09:11:31;;;;;;;47.03;18.50;;;;;;;;;;6245016;23;20245;-89
2021/11/20 09:14:46;;;;;;;51.10;18.55;;;;;;;;;;6246345;23;20190;-91
2021/11/20 09:18:02;;;;;;;48.13;19.40;;;;;;;;;;6245802;23;20170;-89
2021/11/20 09:21:18;;;;;;;45.92;18.65;;;;;;;;;;6243894;23;20170;-91
2021/11/20 09:24:44;;;;;;;46.40;16.67;;;;;;;;;;6244152;23;20249;-92
2021/11/20 09:28:08;;;;;;;41.72;16.95;;;;;;;;;;6245773;23;20842;-90
2021/11/20 09:31:20;;;;;;;45.75;17.05;;;;;;;;;;6246170;23;20207;-90
2021/11/20 09:34:33;;;;;;;42.63;18.92;;;;;;;;;;6247596;22;20272;-91
2021/11/20 09:37:45;;;;;;;41.50;17.15;;;;;;;;;;6248138;23;20225;-89
2021/11/20 09:41:07;;;;;;;41.42;17.70;;;;;;;;;;6249841;23;20187;-89
2021/11/20 09:44:21;;;;;;;40.67;16.75;;;;;;;;;;6249727;23;20266;-90
2021/11/20 09:47:36;;;;;;;40.47;17.77;;;;;;;;;;6248442;23;20171;-90
2021/11/20 09:50:58;;;;;;;37.35;15.75;;;;;;;;;;6247191;22;20202;-91
2021/11/20 09:54:13;;;;;;;38.80;15.73;;;;;;;;;;6247273;23;20171;-91
2021/11/20 09:57:28;;;;;;;42.58;17.42;;;;;;;;;;6248650;23;20230;-91
2021/11/20 10:01:06;;;;;;;39.72;16.75;;;;;;;;;;6250513;23;20478;-89
2021/11/20 10:04:26;;;;;;;42.67;18.45;;;;;;;;;;6248281;23;20201;-88
2021/11/20 10:07:42;;;;;;;37.55;17.02;;;;;;;;;;6247889;22;20159;-91
2021/11/20 10:11:13;;;;;;;42.30;16.88;;;;;;;;;;6249110;23;20187;-90
2021/11/20 10:14:37;;;;;;;41.22;16.33;;;;;;;;;;6248664;23;20166;-89
2021/11/20 10:17:54;;;;;;;40.60;16.20;;;;;;;;;;6248767;23;20219;-89
2021/11/20 10:21:15;;;;;;;45.17;17.92;;;;;;;;;;6248549;23;20212;-89
2021/11/20 10:24:34;;;;;;;37.03;16.27;;;;;;;;;;6232162;23;20163;-89
2021/11/20 10:27:55;;;;;;;36.28;16.45;;;;;;;;;;6250027;23;20613;-89
2021/11/20 10:31:20;;;;;;;39.65;14.82;;;;;;;;;;6249869;23;20175;-90
2021/11/20 10:34:37;;;;;;;34.90;15.60;;;;;;;;;;6250586;23;20170;-92
2021/11/20 10:37:51;;;;;;;38.45;16.27;;;;;;;;;;6250987;23;20170;-90
2021/11/20 10:41:08;;;;;;;40.33;16.80;;;;;;;;;;6247814;23;20167;-90
2021/11/20 10:44:23;;;;;;;35.58;15.50;;;;;;;;;;6248470;23;20170;-91
2021/11/20 10:47:42;;;;;;;34.65;14.90;;;;;;;;;;6248766;23;20167;-89
2021/11/20 10:50:57;;;;;;;36.47;15.63;;;;;;;;;;6248952;23;20194;-88
2021/11/20 10:54:33;;;;;;;33.50;15.25;;;;;;;;;;6246994;23;20185;-89
2021/11/20 10:57:52;;;;;;;35.42;16.08;;;;;;;;;;6247802;22;20259;-90
2021/11/20 11:01:14;;;;;;;37.08;15.43;;;;;;;;;;6247703;23;20167;-88
2021/11/20 11:04:52;;;;;;;34.00;15.27;;;;;;;;;;6248376;23;20154;-90
2021/11/20 11:08:19;;;;;;;33.80;14.68;;;;;;;;;;6247974;22;20281;-89
2021/11/20 11:11:35;;;;;;;33.67;14.82;;;;;;;;;;6246696;23;20175;-90
2021/11/20 11:15:09;;;;;;;40.83;15.45;;;;;;;;;;6247740;23;20199;-90
2021/11/20 11:18:32;;;;;;;33.00;14.18;;;;;;;;;;6247187;23;20165;-90
2021/11/20 11:25:20;;;;;;;33.15;14.48;;;;;;;;;;6249597;23;20278;-92
2021/11/20 11:28:40;;;;;;;36.42;16.67;;;;;;;;;;6250945;23;20192;-91
2021/11/20 11:31:52;;;;;;;35.92;16.23;;;;;;;;;;6251828;22;20315;-92
2021/11/20 11:35:12;;;;;;;33.08;14.43;;;;;;;;;;6265590;22;20166;-92
2021/11/20 11:38:32;;;;;;;28.75;13.93;;;;;;;;;;6249335;22;20178;-91
2021/11/20 11:41:57;;;;;;;33.88;14.00;;;;;;;;;;6246807;23;20233;-93
2021/11/20 11:45:10;;;;;;;31.13;14.43;;;;;;;;;;6247322;23;20174;-90
2021/11/20 11:48:27;;;;;;;31.80;13.63;;;;;;;;;;6264859;23;20229;-91
2021/11/20 11:51:43;;;;;;;33.10;14.00;;;;;;;;;;6247896;23;20297;-90
2021/11/20 11:55:12;;;;;;;33.25;15.57;;;;;;;;;;6246248;23;20158;-91
2021/11/20 11:58:37;;;;;;;36.45;15.23;;;;;;;;;;6246408;23;20239;-91
2021/11/20 12:02:00;;;;;;;31.10;13.82;;;;;;;;;;6247767;22;20155;-89
2021/11/20 12:05:27;;;;;;;28.30;12.93;;;;;;;;;;6246213;23;20213;-92
2021/11/20 12:08:40;;;;;;;28.67;14.23;;;;;;;;;;6248065;23;20205;-91
2021/11/20 12:11:55;;;;;;;31.17;13.95;;;;;;;;;;6245520;23;20617;-91
2021/11/20 12:15:22;;;;;;;57.92;25.38;;;;;;;;;;6249709;22;20174;-90
2021/11/20 12:18:39;;;;;;;30.33;14.23;;;;;;;;;;6250799;22;20154;-91
2021/11/20 12:21:59;;;;;;;30.65;14.38;;;;;;;;;;6245963;23;20190;-90
2021/11/20 12:34:40;;;;;;;29.25;13.88;;;;;;;;;;6171142;22;20223;-92
2021/11/20 12:38:02;;;;;;;32.03;14.45;;;;;;;;;;6250492;22;20154;-92
2021/11/20 12:41:23;;;;;;;30.05;13.93;;;;;;;;;;6250904;23;20233;-92
2021/11/20 12:44:48;;;;;;;28.95;13.90;;;;;;;;;;6250293;22;20175;-91
2021/11/20 12:48:16;;;;;;;31.90;14.98;;;;;;;;;;6249410;23;20167;-90
2021/11/20 12:51:43;;;;;;;27.65;13.95;;;;;;;;;;6248734;23;20197;-89
2021/11/20 12:55:08;;;;;;;34.30;15.98;;;;;;;;;;6246477;23;20207;-91
2021/11/20 12:58:23;;;;;;;34.15;14.57;;;;;;;;;;6247647;23;20171;-91
2021/11/20 15:36:45;;;;;;;38.10;17.48;;;;;;;;;;6232536;22;20211;-88
2021/11/20 15:39:58;;;;;;;36.72;15.55;;;;;;;;;;6246459;23;20197;-87
2021/11/20 15:43:11;;;;;;;30.15;13.95;;;;;;;;;;6245943;23;20173;-90
2021/11/20 15:46:23;;;;;;;32.55;14.48;;;;;;;;;;6245374;23;20170;-91
2021/11/20 15:49:35;;;;;;;28.05;13.18;;;;;;;;;;6248419;23;20246;-89
2021/11/20 15:52:49;;;;;;;27.10;13.13;;;;;;;;;;6245963;23;20206;-89
2021/11/20 15:56:02;;;;;;;27.65;12.93;;;;;;;;;;6245864;23;20166;-89
2021/11/20 15:59:14;;;;;;;35.33;14.77;;;;;;;;;;6244985;23;20181;-90
2021/11/20 16:02:26;;;;;;;34.28;15.32;;;;;;;;;;6244879;23;20182;-89
2021/11/20 16:05:47;;;;;;;32.33;15.57;;;;;;;;;;6246450;23;20174;-88
2021/11/20 16:09:03;;;;;;;28.95;13.32;;;;;;;;;;6244614;23;20170;-89
2021/11/20 16:12:15;;;;;;;33.35;14.75;;;;;;;;;;6245030;23;20214;-91
2021/11/20 16:15:27;;;;;;;31.48;15.95;;;;;;;;;;6245232;23;20190;-87
2021/11/20 16:18:40;;;;;;;34.33;14.82;;;;;;;;;;6245991;23;20198;-90
2021/11/20 16:21:52;;;;;;;30.07;13.90;;;;;;;;;;6246773;23;20170;-88
2021/11/20 16:25:07;;;;;;;28.47;14.00;;;;;;;;;;6234182;23;20235;-90
2021/11/20 16:28:19;;;;;;;23.92;11.13;;;;;;;;;;6244366;23;20271;-89
2021/11/20 16:31:32;;;;;;;23.05;11.70;;;;;;;;;;6244552;23;20652;-89
2021/11/20 16:34:46;;;;;;;25.20;12.75;;;;;;;;;;6244882;23;20166;-90
2021/11/20 16:37:59;;;;;;;23.83;12.13;;;;;;;;;;6244890;23;20239;-88
2021/11/20 16:41:14;;;;;;;29.95;12.40;;;;;;;;;;6244760;23;20162;-89
2021/11/20 16:44:26;;;;;;;29.95;12.00;;;;;;;;;;6251037;22;20166;-88
2021/11/20 16:47:38;;;;;;;21.97;11.07;;;;;;;;;;6249339;23;20598;-89
2021/11/20 16:50:59;;;;;;;28.17;11.80;;;;;;;;;;6250119;23;20193;-88
2021/11/20 16:54:16;;;;;;;23.85;11.27;;;;;;;;;;6252681;23;20202;-89
2021/11/20 16:57:32;;;;;;;29.98;12.35;;;;;;;;;;6252186;22;20190;-88
2021/11/20 17:04:12;;;;;;;26.98;10.18;;;;;;;;;;6251003;23;20213;-89
2021/11/20 17:07:24;;;;;;;22.20;10.50;;;;;;;;;;6234233;23;20245;-91
2021/11/20 17:10:37;;;;;;;21.77;10.32;;;;;;;;;;6251235;23;20618;-87
2021/11/20 17:13:53;;;;;;;19.85;10.40;;;;;;;;;;6248703;22;20166;-90
2021/11/20 17:17:07;;;;;;;24.15;11.30;;;;;;;;;;6252186;23;20230;-87
2021/11/20 17:20:19;;;;;;;22.63;11.20;;;;;;;;;;6252906;23;20166;-90
2021/11/20 17:23:32;;;;;;;23.08;10.65;;;;;;;;;;6252476;23;20186;-90
2021/11/20 17:26:45;;;;;;;28.00;14.13;;;;;;;;;;6251358;23;20268;-89
2021/11/20 17:30:03;;;;;;;22.05;10.80;;;;;;;;;;6250438;23;20173;-89
2021/11/20 17:33:16;;;;;;;26.10;13.48;;;;;;;;;;6236174;23;20170;-89
2021/11/20 17:36:28;;;;;;;27.85;12.52;;;;;;;;;;6249833;23;20178;-90
2021/11/20 17:39:40;;;;;;;24.05;11.15;;;;;;;;;;6250273;23;20171;-89
2021/11/20 17:42:52;;;;;;;27.20;12.63;;;;;;;;;;6250079;23;20162;-88
2021/11/20 17:46:07;;;;;;;29.83;13.05;;;;;;;;;;6248722;23;20167;-88
2021/11/20 17:49:19;;;;;;;26.55;12.43;;;;;;;;;;6248689;23;20175;-89
2021/11/20 17:52:31;;;;;;;26.42;12.43;;;;;;;;;;6247832;23;20175;-87
2021/11/20 17:55:43;;;;;;;25.10;12.43;;;;;;;;;;6248289;23;20178;-88
2021/11/20 17:58:55;;;;;;;28.03;11.83;;;;;;;;;;6247246;23;20167;-89
2021/11/20 18:02:19;;;;;;;26.55;11.88;;;;;;;;;;6247536;23;20469;-91
2021/11/20 18:06:10;;;;;;;23.37;11.30;;;;;;;;;;6248092;23;20159;-89
2021/11/20 18:09:22;;;;;;;23.30;11.10;;;;;;;;;;6247674;23;20277;-90
2021/11/20 18:12:34;;;;;;;22.47;11.37;;;;;;;;;;6248576;23;20171;-89
2021/11/20 18:15:46;;;;;;;25.67;11.60;;;;;;;;;;6249778;23;20214;-87
2021/11/20 18:19:00;;;;;;;25.23;11.90;;;;;;;;;;6249137;23;20174;-90
2021/11/20 18:22:13;;;;;;;26.97;11.20;;;;;;;;;;6248193;23;20243;-89
2021/11/20 18:25:33;;;;;;;20.47;10.07;;;;;;;;;;6249086;23;20215;-90
2021/11/20 18:28:45;;;;;;;28.40;11.77;;;;;;;;;;6246595;23;20174;-91
2021/11/20 18:31:58;;;;;;;28.85;13.75;;;;;;;;;;6246203;23;20190;-89
2021/11/20 18:35:13;;;;;;;47.78;19.77;;;;;;;;;;6246356;23;20171;-89
2021/11/20 18:38:25;;;;;;;30.52;13.32;;;;;;;;;;6248111;23;20222;-90
2021/11/20 18:41:37;;;;;;;23.67;11.57;;;;;;;;;;6246283;23;20166;-89
2021/11/20 18:44:49;;;;;;;27.48;12.25;;;;;;;;;;6246684;23;20262;-90
2021/11/20 18:48:03;;;;;;;27.55;12.13;;;;;;;;;;6249724;23;20162;-89
2021/11/20 18:51:19;;;;;;;23.30;11.48;;;;;;;;;;6246750;23;20190;-89
2021/11/20 18:54:32;;;;;;;21.25;10.50;;;;;;;;;;6250596;23;20166;-90
2021/11/20 18:57:44;;;;;;;23.20;11.57;;;;;;;;;;6245898;22;20170;-89
2021/11/20 19:00:56;;;;;;;26.73;13.60;;;;;;;;;;6244751;23;20198;-90
2021/11/20 19:04:08;;;;;;;29.65;13.50;;;;;;;;;;6246000;23;20233;-89
2021/11/20 19:07:27;;;;;;;30.33;13.85;;;;;;;;;;6244623;22;20170;-89
2021/11/20 19:10:39;;;;;;;23.90;11.25;;;;;;;;;;6245745;22;20190;-89
2021/11/20 19:13:51;;;;;;;28.50;13.55;;;;;;;;;;6243787;23;20177;-88
2021/11/20 19:17:03;;;;;;;27.25;12.23;;;;;;;;;;6244770;23;20162;-91
2021/11/20 19:20:19;;;;;;;29.38;13.65;;;;;;;;;;6246995;23;20216;-89
2021/11/20 19:23:37;;;;;;;31.45;12.63;;;;;;;;;;6245615;23;20174;-90
2021/11/20 19:27:05;;;;;;;33.65;14.15;;;;;;;;;;6263585;23;20174;-86
2021/11/20 19:30:28;;;;;;;27.23;13.30;;;;;;;;;;6245968;22;20226;-89
2021/11/20 19:33:41;;;;;;;22.92;11.63;;;;;;;;;;6245291;23;20201;-87
2021/11/20 19:36:55;;;;;;;28.90;13.40;;;;;;;;;;6228980;23;20197;-90
2021/11/20 19:40:10;;;;;;;27.83;13.68;;;;;;;;;;6243897;23;20222;-89
2021/11/20 19:43:22;;;;;;;28.80;13.55;;;;;;;;;;6244957;23;20182;-89
2021/11/20 19:46:34;;;;;;;25.85;12.82;;;;;;;;;;6245009;23;20202;-89
2021/11/20 19:49:46;;;;;;;34.30;15.53;;;;;;;;;;6244581;23;20170;-88
2021/11/20 19:52:58;;;;;;;34.67;15.82;;;;;;;;;;6245623;23;20229;-87
2021/11/20 19:56:16;;;;;;;42.20;18.98;;;;;;;;;;6244814;23;20658;-88
2021/11/20 19:59:30;;;;;;;27.40;12.18;;;;;;;;;;6245584;23;20258;-89
2021/11/20 20:02:42;;;;;;;26.13;12.32;;;;;;;;;;6244677;22;20162;-89
2021/11/20 20:05:55;;;;;;;24.77;12.55;;;;;;;;;;6245171;23;20178;-89
2021/11/20 20:09:08;;;;;;;26.17;12.20;;;;;;;;;;6244596;23;20397;-91
2021/11/20 20:12:24;;;;;;;22.17;11.57;;;;;;;;;;6243783;23;20181;-90
2021/11/20 20:15:36;;;;;;;26.07;12.23;;;;;;;;;;6243208;22;20166;-92
2021/11/20 20:18:48;;;;;;;27.90;13.27;;;;;;;;;;6241829;23;20212;-87
2021/11/20 20:22:00;;;;;;;31.23;15.07;;;;;;;;;;6242455;23;20186;-91
2021/11/20 20:25:12;;;;;;;26.57;13.17;;;;;;;;;;6241159;23;20629;-88
2021/11/20 20:28:29;;;;;;;38.53;17.07;;;;;;;;;;6241591;22;20161;-88
2021/11/20 20:31:43;;;;;;;35.53;18.80;;;;;;;;;;6241018;23;20231;-89
2021/11/20 20:34:56;;;;;;;31.13;14.83;;;;;;;;;;6241507;23;20170;-89
2021/11/20 20:38:09;;;;;;;34.57;15.43;;;;;;;;;;6242326;23;20170;-89
2021/11/20 20:41:21;;;;;;;30.13;13.75;;;;;;;;;;6242396;23;20169;-88
2021/11/20 20:44:35;;;;;;;34.73;15.03;;;;;;;;;;6242228;23;20171;-91
2021/11/20 20:47:51;;;;;;;29.85;13.93;;;;;;;;;;6242039;23;20194;-87
2021/11/20 20:51:04;;;;;;;32.77;13.17;;;;;;;;;;6242925;23;20191;-88
2021/11/20 20:54:16;;;;;;;26.92;13.13;;;;;;;;;;6241983;23;20617;-90
2021/11/20 20:57:28;;;;;;;27.77;13.37;;;;;;;;;;6241657;23;20231;-88
2021/11/20 21:00:42;;;;;;;26.77;13.83;;;;;;;;;;6243797;23;20220;-89
2021/11/20 21:03:54;;;;;;;36.07;13.77;;;;;;;;;;6245253;23;20190;-89
2021/11/20 21:07:14;;;;;;;27.48;13.57;;;;;;;;;;6245327;23;20179;-89
2021/11/20 21:10:26;;;;;;;25.50;12.30;;;;;;;;;;6243042;23;20228;-90
2021/11/20 21:13:38;;;;;;;30.97;14.03;;;;;;;;;;6242679;23;20178;-90
2021/11/20 21:16:53;;;;;;;24.87;12.27;;;;;;;;;;6242420;23;20171;-88
2021/11/20 21:23:34;;;;;;;30.97;13.23;;;;;;;;;;6240831;23;20163;-89
2021/11/20 21:26:47;;;;;;;30.77;13.87;;;;;;;;;;6240440;23;20158;-90
2021/11/20 21:29:59;;;;;;;25.48;13.10;;;;;;;;;;6240308;23;20202;-90
2021/11/20 21:33:13;;;;;;;28.02;13.73;;;;;;;;;;6240155;23;20198;-89
2021/11/20 21:36:25;;;;;;;27.60;12.83;;;;;;;;;;6241028;23;20194;-90
2021/11/20 21:39:37;;;;;;;31.10;14.30;;;;;;;;;;6243754;23;20170;-89
2021/11/20 21:42:49;;;;;;;30.73;14.00;;;;;;;;;;6241833;23;20249;-91
2021/11/20 21:46:03;;;;;;;28.77;13.27;;;;;;;;;;6242401;23;20239;-89
2021/11/20 21:49:16;;;;;;;26.83;11.60;;;;;;;;;;6243421;23;20214;-91
2021/11/20 21:52:29;;;;;;;27.77;12.60;;;;;;;;;;6242253;23;20192;-90
2021/11/20 21:55:41;;;;;;;32.37;14.17;;;;;;;;;;6242333;23;20170;-91
2021/11/20 21:58:53;;;;;;;26.30;12.60;;;;;;;;;;6241448;23;20179;-88
2021/11/20 22:02:06;;;;;;;29.67;14.97;;;;;;;;;;6243979;23;20258;-89
2021/11/20 22:05:30;;;;;;;31.77;14.27;;;;;;;;;;6244155;23;20194;-89